createdAt,value
2022-10-22T00:00:00.927Z,983.04
2022-10-22T00:01:00.870Z,983.08
2022-10-22T00:02:00.869Z,983.12
2022-10-22T00:03:00.916Z,983.17
2022-10-22T00:04:00.886Z,983.20
2022-10-22T00:05:00.847Z,983.23
2022-10-22T00:06:00.827Z,983.23
2022-10-22T00:07:00.825Z,983.22
2022-10-22T00:08:00.806Z,983.22
2022-10-22T00:09:00.907Z,983.24
2022-10-22T00:10:00.809Z,983.29
2022-10-22T00:11:00.791Z,983.33
2022-10-22T00:12:00.766Z,983.36
2022-10-22T00:13:00.765Z,983.37
2022-10-22T00:14:00.759Z,983.35
2022-10-22T00:15:00.779Z,983.32
2022-10-22T00:16:00.734Z,983.28
2022-10-22T00:17:00.730Z,983.26
2022-10-22T00:18:00.735Z,983.23
2022-10-22T00:19:00.715Z,983.21
2022-10-22T00:20:00.717Z,983.19
2022-10-22T00:21:00.720Z,983.17
2022-10-22T00:22:00.696Z,983.17
2022-10-22T00:23:00.683Z,983.20
2022-10-22T00:24:00.679Z,983.25
2022-10-22T00:25:00.662Z,983.30
2022-10-22T00:26:01.449Z,983.34
2022-10-22T00:27:00.690Z,983.36
2022-10-22T00:28:00.642Z,983.36
2022-10-22T00:29:00.640Z,983.36
2022-10-22T00:30:00.621Z,983.37
2022-10-22T00:31:00.631Z,983.38
2022-10-22T00:32:00.622Z,983.41
2022-10-22T00:33:00.636Z,983.43
2022-10-22T00:34:00.603Z,983.47
2022-10-22T00:35:00.598Z,983.49
2022-10-22T00:36:00.577Z,983.51
2022-10-22T00:37:00.581Z,983.53
2022-10-22T00:38:00.576Z,983.54
2022-10-22T00:39:00.575Z,983.56
2022-10-22T00:40:00.542Z,983.58
2022-10-22T00:42:00.541Z,983.65
2022-10-22T00:43:00.510Z,983.69
2022-10-22T00:44:00.506Z,983.72
2022-10-22T00:45:00.518Z,983.74
2022-10-22T00:46:00.494Z,983.74
2022-10-22T00:47:00.483Z,983.73
2022-10-22T00:48:00.496Z,983.71
2022-10-22T00:49:00.466Z,983.69
2022-10-22T00:50:00.531Z,983.67
2022-10-22T00:51:00.462Z,983.67
2022-10-22T00:52:00.437Z,983.69
2022-10-22T00:53:00.723Z,983.68
2022-10-22T00:54:00.446Z,983.68
2022-10-22T00:55:00.425Z,983.68
2022-10-22T00:56:00.415Z,983.66
2022-10-22T00:57:00.398Z,983.63
2022-10-22T00:58:00.390Z,983.60
2022-10-22T00:59:00.410Z,983.56
2022-10-22T01:00:00.383Z,983.51
2022-10-22T01:01:00.444Z,983.48
2022-10-22T01:02:00.350Z,983.45
2022-10-22T01:03:00.342Z,983.43
2022-10-22T01:04:00.348Z,983.42
2022-10-22T01:05:00.328Z,983.41
2022-10-22T01:06:00.354Z,983.39
2022-10-22T01:07:00.325Z,983.37
2022-10-22T01:08:00.394Z,983.35
2022-10-22T01:09:00.330Z,983.34
2022-10-22T01:10:00.291Z,983.33
2022-10-22T01:11:00.276Z,983.33
2022-10-22T01:12:00.294Z,983.32
2022-10-22T01:13:00.274Z,983.31
2022-10-22T01:14:00.284Z,983.29
2022-10-22T01:15:00.247Z,983.28
2022-10-22T01:16:00.242Z,983.25
2022-10-22T01:17:00.231Z,983.21
2022-10-22T01:18:00.249Z,983.18
2022-10-22T01:19:00.212Z,983.13
2022-10-22T01:20:00.227Z,983.09
2022-10-22T01:21:00.189Z,983.05
2022-10-22T01:22:00.190Z,983.02
2022-10-22T01:23:00.176Z,983.00
2022-10-22T01:24:00.188Z,982.98
2022-10-22T01:25:00.189Z,982.96
2022-10-22T01:26:00.154Z,982.95
2022-10-22T01:27:00.142Z,982.93
2022-10-22T01:28:00.160Z,982.91
2022-10-22T01:29:00.159Z,982.90
2022-10-22T01:30:00.127Z,982.88
2022-10-22T01:31:00.114Z,982.87
2022-10-22T01:32:00.109Z,982.86
2022-10-22T01:33:00.105Z,982.86
2022-10-22T01:34:00.097Z,982.86
2022-10-22T01:35:00.112Z,982.87
2022-10-22T01:36:00.124Z,982.89
2022-10-22T01:37:00.078Z,982.91
2022-10-22T01:38:00.062Z,982.92
2022-10-22T01:39:00.044Z,982.94
2022-10-22T01:40:00.041Z,982.96
2022-10-22T01:41:00.053Z,982.98
2022-10-22T01:42:00.023Z,983.00
2022-10-22T01:43:00.014Z,983.01
2022-10-22T01:44:00.004Z,983.02
2022-10-22T01:45:00.014Z,983.03
2022-10-22T01:45:59.989Z,983.04
2022-10-22T01:47:00.002Z,983.06
2022-10-22T01:47:59.981Z,983.07
2022-10-22T01:48:59.973Z,983.09
2022-10-22T01:49:59.961Z,983.10
2022-10-22T01:50:59.981Z,983.12
2022-10-22T01:51:59.952Z,983.13
2022-10-22T01:52:59.930Z,983.15
2022-10-22T01:53:59.931Z,983.18
2022-10-22T01:54:59.917Z,983.18
2022-10-22T01:55:59.914Z,983.19
2022-10-22T01:56:59.929Z,983.20
2022-10-22T01:57:59.902Z,983.22
2022-10-22T01:58:59.891Z,983.23
2022-10-22T01:59:59.886Z,983.23
2022-10-22T02:00:59.945Z,983.23
2022-10-22T02:01:59.879Z,983.24
2022-10-22T02:02:59.905Z,983.25
2022-10-22T02:04:00.485Z,983.25
2022-10-22T02:04:59.850Z,983.26
2022-10-22T02:05:59.830Z,983.26
2022-10-22T02:06:59.847Z,983.26
2022-10-22T02:07:59.828Z,983.25
2022-10-22T02:08:59.851Z,983.24
2022-10-22T02:09:59.857Z,983.24
2022-10-22T02:10:59.805Z,983.23
2022-10-22T02:11:59.833Z,983.22
2022-10-22T02:12:59.818Z,983.20
2022-10-22T02:13:59.785Z,983.19
2022-10-22T02:14:59.769Z,983.19
2022-10-22T02:15:59.804Z,983.20
2022-10-22T02:16:59.768Z,983.21
2022-10-22T02:17:59.748Z,983.21
2022-10-22T02:18:59.743Z,983.21
2022-10-22T02:19:59.785Z,983.20
2022-10-22T02:20:59.755Z,983.20
2022-10-22T02:21:59.727Z,983.21
2022-10-22T02:22:59.695Z,983.21
2022-10-22T02:23:59.703Z,983.22
2022-10-22T02:24:59.717Z,983.21
2022-10-22T02:27:10.993Z,983.17
2022-10-22T02:28:11.001Z,983.16
2022-10-22T02:29:10.988Z,983.15
2022-10-22T02:30:11.022Z,983.15
2022-10-22T02:31:10.965Z,983.16
2022-10-22T02:32:10.978Z,983.18
2022-10-22T02:33:10.960Z,983.19
2022-10-22T02:34:10.949Z,983.21
2022-10-22T02:35:10.940Z,983.21
2022-10-22T02:36:10.945Z,983.21
2022-10-22T02:37:10.969Z,983.19
2022-10-22T02:38:10.929Z,983.17
2022-10-22T02:39:11.009Z,983.15
2022-10-22T02:40:10.914Z,983.14
2022-10-22T02:41:10.885Z,983.12
2022-10-22T02:42:10.882Z,983.11
2022-10-22T02:43:10.897Z,983.09
2022-10-22T02:44:10.885Z,983.07
2022-10-22T02:45:10.902Z,983.06
2022-10-22T02:46:10.849Z,983.04
2022-10-22T02:47:10.838Z,983.04
2022-10-22T02:48:10.958Z,983.05
2022-10-22T02:49:10.855Z,983.07
2022-10-22T02:50:10.828Z,983.10
2022-10-22T02:51:10.842Z,983.14
2022-10-22T02:52:10.814Z,983.18
2022-10-22T02:53:10.811Z,983.22
2022-10-22T02:54:10.795Z,983.25
2022-10-22T02:55:10.780Z,983.27
2022-10-22T02:56:10.803Z,983.28
2022-10-22T02:57:10.852Z,983.29
2022-10-22T02:58:10.769Z,983.32
2022-10-22T02:59:10.743Z,983.34
2022-10-22T03:00:10.740Z,983.36
2022-10-22T03:01:13.754Z,983.37
2022-10-22T03:02:11.784Z,983.39
2022-10-22T03:03:10.724Z,983.40
2022-10-22T03:04:10.721Z,983.40
2022-10-22T03:05:10.713Z,983.41
2022-10-22T03:06:10.697Z,983.42
2022-10-22T03:07:10.685Z,983.44
2022-10-22T03:08:10.751Z,983.46
2022-10-22T03:09:10.673Z,983.50
2022-10-22T03:10:10.676Z,983.53
2022-10-22T03:11:10.662Z,983.55
2022-10-22T03:12:10.649Z,983.55
2022-10-22T03:13:10.638Z,983.56
2022-10-22T03:14:10.678Z,983.58
2022-10-22T03:15:10.618Z,983.59
2022-10-22T03:16:10.614Z,983.58
2022-10-22T03:17:10.605Z,983.55
2022-10-22T03:18:10.609Z,983.52
2022-10-22T03:19:10.587Z,983.51
2022-10-22T03:20:10.606Z,983.53
2022-10-22T03:21:10.576Z,983.56
2022-10-22T03:22:10.565Z,983.58
2022-10-22T03:23:10.561Z,983.60
2022-10-22T03:24:10.553Z,983.62
2022-10-22T03:25:10.570Z,983.63
2022-10-22T03:26:10.537Z,983.65
2022-10-22T03:27:10.518Z,983.66
2022-10-22T03:28:10.526Z,983.70
2022-10-22T03:29:10.526Z,983.74
2022-10-22T03:30:10.500Z,983.77
2022-10-22T03:31:10.522Z,983.78
2022-10-22T03:32:10.486Z,983.78
2022-10-22T03:33:10.478Z,983.78
2022-10-22T03:34:10.480Z,983.78
2022-10-22T03:35:10.468Z,983.79
2022-10-22T03:36:10.482Z,983.80
2022-10-22T03:37:10.442Z,983.79
2022-10-22T03:38:10.435Z,983.79
2022-10-22T03:39:10.429Z,983.79
2022-10-22T03:40:10.424Z,983.80
2022-10-22T03:41:10.429Z,983.81
2022-10-22T03:42:10.415Z,983.84
2022-10-22T03:43:10.398Z,983.86
2022-10-22T03:44:10.391Z,983.88
2022-10-22T03:45:10.388Z,983.89
2022-10-22T03:46:10.380Z,983.89
2022-10-22T03:47:10.441Z,983.90
2022-10-22T03:48:10.368Z,983.91
2022-10-22T03:49:10.352Z,983.93
2022-10-22T03:50:10.357Z,983.94
2022-10-22T03:51:10.346Z,983.94
2022-10-22T03:52:10.350Z,983.95
2022-10-22T03:53:10.339Z,983.95
2022-10-22T03:54:10.321Z,983.96
2022-10-22T03:55:10.308Z,983.98
2022-10-22T03:56:10.305Z,983.99
2022-10-22T03:57:10.288Z,984.00
2022-10-22T03:58:10.282Z,984.00
2022-10-22T03:59:10.300Z,984.00
2022-10-22T04:00:10.278Z,984.02
2022-10-22T04:01:10.303Z,984.02
2022-10-22T04:02:10.250Z,984.02
2022-10-22T04:03:10.245Z,984.04
2022-10-22T04:04:10.241Z,984.05
2022-10-22T04:05:10.354Z,984.07
2022-10-22T04:06:10.244Z,984.08
2022-10-22T04:07:10.217Z,984.10
2022-10-22T04:08:10.219Z,984.12
2022-10-22T04:09:10.265Z,984.14
2022-10-22T04:10:10.181Z,984.14
2022-10-22T04:11:10.196Z,984.14
2022-10-22T04:12:10.172Z,984.14
2022-10-22T04:13:10.177Z,984.16
2022-10-22T04:14:10.165Z,984.17
2022-10-22T04:15:10.146Z,984.19
2022-10-22T04:16:10.162Z,984.22
2022-10-22T04:17:10.136Z,984.26
2022-10-22T04:18:10.126Z,984.28
2022-10-22T04:19:10.127Z,984.30
2022-10-22T04:20:10.115Z,984.28
2022-10-22T04:21:10.100Z,984.29
2022-10-22T04:22:10.109Z,984.28
2022-10-22T04:23:10.082Z,984.29
2022-10-22T04:24:10.071Z,984.30
2022-10-22T04:25:10.061Z,984.30
2022-10-22T04:26:10.066Z,984.29
2022-10-22T04:27:10.053Z,984.30
2022-10-22T04:28:10.073Z,984.28
2022-10-22T04:29:13.377Z,984.28
2022-10-22T04:30:11.132Z,984.30
2022-10-22T04:31:10.034Z,984.32
2022-10-22T04:32:10.029Z,984.33
2022-10-22T04:33:10.004Z,984.33
2022-10-22T04:34:10.018Z,984.34
2022-10-22T04:35:09.985Z,984.34
2022-10-22T04:36:09.982Z,984.33
2022-10-22T04:37:09.971Z,984.32
2022-10-22T04:38:09.964Z,984.32
2022-10-22T04:39:09.959Z,984.31
2022-10-22T04:40:10.005Z,984.32
2022-10-22T04:41:09.951Z,984.32
2022-10-22T04:42:09.937Z,984.31
2022-10-22T04:43:09.929Z,984.31
2022-10-22T04:44:12.417Z,984.31
2022-10-22T04:45:10.945Z,984.31
2022-10-22T04:46:09.915Z,984.32
2022-10-22T04:47:09.899Z,984.35
2022-10-22T04:48:09.892Z,984.36
2022-10-22T04:49:09.878Z,984.38
2022-10-22T04:50:09.874Z,984.40
2022-10-22T04:51:09.896Z,984.37
2022-10-22T04:52:09.857Z,984.36
2022-10-22T04:53:09.843Z,984.35
2022-10-22T04:54:09.839Z,984.32
2022-10-22T04:55:09.821Z,984.29
2022-10-22T04:56:09.864Z,984.28
2022-10-22T04:57:09.843Z,984.26
2022-10-22T04:58:09.817Z,984.21
2022-10-22T04:59:09.800Z,984.18
2022-10-22T05:00:09.805Z,984.13
2022-10-22T05:01:09.806Z,984.09
2022-10-22T05:02:09.784Z,984.06
2022-10-22T05:03:09.864Z,984.04
2022-10-22T05:04:09.758Z,984.02
2022-10-22T05:05:09.749Z,983.99
2022-10-22T05:06:09.771Z,983.95
2022-10-22T05:07:09.753Z,983.92
2022-10-22T05:08:09.745Z,983.89
2022-10-22T05:09:09.768Z,983.87
2022-10-22T05:10:09.705Z,983.85
2022-10-22T05:11:09.694Z,983.84
2022-10-22T05:12:09.717Z,983.83
2022-10-22T05:13:09.691Z,983.81
2022-10-22T05:14:09.721Z,983.82
2022-10-22T05:15:09.677Z,983.82
2022-10-22T05:16:09.670Z,983.85
2022-10-22T05:17:09.663Z,983.88
2022-10-22T05:18:09.653Z,983.91
2022-10-22T05:19:09.662Z,983.98
2022-10-22T05:20:09.629Z,984.00
2022-10-22T05:21:09.630Z,984.01
2022-10-22T05:22:09.614Z,984.01
2022-10-22T05:23:09.607Z,983.98
2022-10-22T05:24:09.598Z,984.00
2022-10-22T05:25:09.615Z,984.00
2022-10-22T05:26:09.586Z,984.03
2022-10-22T05:27:09.627Z,984.05
2022-10-22T05:28:09.575Z,984.08
2022-10-22T05:29:09.562Z,984.10
2022-10-22T05:30:09.555Z,984.13
2022-10-22T05:31:09.583Z,984.17
2022-10-22T05:32:09.551Z,984.21
2022-10-22T05:33:09.537Z,984.23
2022-10-22T05:34:09.522Z,984.22
2022-10-22T05:35:09.512Z,984.21
2022-10-22T05:36:09.524Z,984.17
2022-10-22T05:37:09.491Z,984.12
2022-10-22T05:38:09.492Z,984.09
2022-10-22T05:39:09.480Z,984.06
2022-10-22T05:40:19.116Z,984.05
2022-10-22T05:41:10.484Z,984.07
2022-10-22T05:42:09.467Z,984.15
2022-10-22T05:43:09.447Z,984.23
2022-10-22T05:44:09.439Z,984.30
2022-10-22T05:45:09.440Z,984.35
2022-10-22T05:46:09.427Z,984.35
2022-10-22T05:47:09.452Z,984.34
2022-10-22T05:48:09.430Z,984.35
2022-10-22T05:49:09.406Z,984.38
2022-10-22T05:50:09.390Z,984.39
2022-10-22T05:51:09.379Z,984.37
2022-10-22T05:52:09.377Z,984.36
2022-10-22T05:53:09.371Z,984.34
2022-10-22T05:54:09.372Z,984.35
2022-10-22T05:55:09.349Z,984.37
2022-10-22T05:56:09.338Z,984.41
2022-10-22T05:57:09.332Z,984.44
2022-10-22T05:58:09.324Z,984.45
2022-10-22T05:59:09.332Z,984.47
2022-10-22T06:00:11.701Z,984.51
2022-10-22T06:01:09.303Z,984.58
2022-10-22T06:02:09.343Z,984.61
2022-10-22T06:03:09.286Z,984.61
2022-10-22T06:04:09.302Z,984.61
2022-10-22T06:05:09.270Z,984.64
2022-10-22T06:06:09.264Z,984.69
2022-10-22T06:07:09.248Z,984.74
2022-10-22T06:08:09.277Z,984.74
2022-10-22T06:09:09.370Z,984.76
2022-10-22T06:10:09.430Z,984.83
2022-10-22T06:11:09.214Z,984.86
2022-10-22T06:12:09.411Z,984.87
2022-10-22T06:13:09.257Z,984.90
2022-10-22T06:14:09.190Z,984.92
2022-10-22T06:15:09.242Z,984.94
2022-10-22T06:16:09.178Z,984.96
2022-10-22T06:17:09.389Z,984.98
2022-10-22T06:18:09.167Z,985.00
2022-10-22T06:19:09.221Z,985.00
2022-10-22T06:20:09.155Z,985.01
2022-10-22T06:21:09.204Z,985.01
2022-10-22T06:22:09.135Z,985.02
2022-10-22T06:23:09.150Z,985.06
2022-10-22T06:24:09.131Z,985.06
2022-10-22T06:25:09.141Z,985.09
2022-10-22T06:26:09.095Z,985.11
2022-10-22T06:27:09.129Z,985.13
2022-10-22T06:28:09.095Z,985.14
2022-10-22T06:29:09.155Z,985.17
2022-10-22T06:30:09.081Z,985.19
2022-10-22T06:31:09.223Z,985.21
2022-10-22T06:32:09.061Z,985.22
2022-10-22T06:33:09.044Z,985.24
2022-10-22T06:34:09.300Z,985.25
2022-10-22T06:35:09.037Z,985.28
2022-10-22T06:36:09.019Z,985.28
2022-10-22T06:37:09.026Z,985.29
2022-10-22T06:38:09.030Z,985.30
2022-10-22T06:39:09.003Z,985.34
2022-10-22T06:40:08.998Z,985.35
2022-10-22T06:41:08.993Z,985.38
2022-10-22T06:42:08.969Z,985.40
2022-10-22T06:43:08.996Z,985.41
2022-10-22T06:44:09.096Z,985.43
2022-10-22T06:45:08.953Z,985.46
2022-10-22T06:46:08.957Z,985.46
2022-10-22T06:47:08.933Z,985.47
2022-10-22T06:48:08.924Z,985.49
2022-10-22T06:49:08.927Z,985.54
2022-10-22T06:50:08.925Z,985.57
2022-10-22T06:51:08.902Z,985.58
2022-10-22T06:52:09.007Z,985.60
2022-10-22T06:53:08.906Z,985.62
2022-10-22T06:54:08.885Z,985.64
2022-10-22T06:55:08.869Z,985.64
2022-10-22T06:56:08.896Z,985.64
2022-10-22T06:57:08.891Z,985.65
2022-10-22T06:58:08.860Z,985.66
2022-10-22T06:59:08.839Z,985.66
2022-10-22T07:00:08.844Z,985.67
2022-10-22T07:01:08.883Z,985.68
2022-10-22T07:02:08.830Z,985.69
2022-10-22T07:03:08.820Z,985.70
2022-10-22T07:04:08.817Z,985.73
2022-10-22T07:05:08.783Z,985.74
2022-10-22T07:06:08.772Z,985.74
2022-10-22T07:07:08.783Z,985.74
2022-10-22T07:08:08.764Z,985.75
2022-10-22T07:09:08.816Z,985.76
2022-10-22T07:10:08.748Z,985.78
2022-10-22T07:11:08.738Z,985.80
2022-10-22T07:12:08.735Z,985.81
2022-10-22T07:13:08.775Z,985.82
2022-10-22T07:14:08.726Z,985.83
2022-10-22T07:15:08.704Z,985.83
2022-10-22T07:16:08.743Z,985.82
2022-10-22T07:17:08.940Z,985.83
2022-10-22T07:18:09.926Z,985.85
2022-10-22T07:19:08.706Z,985.85
2022-10-22T07:20:08.697Z,985.85
2022-10-22T07:21:08.670Z,985.86
2022-10-22T07:22:08.657Z,985.87
2022-10-22T07:23:08.649Z,985.88
2022-10-22T07:24:08.663Z,985.90
2022-10-22T07:25:08.640Z,985.92
2022-10-22T07:26:08.625Z,985.95
2022-10-22T07:27:10.969Z,985.97
2022-10-22T07:28:08.625Z,986.00
2022-10-22T07:29:09.509Z,986.01
2022-10-22T07:30:08.594Z,986.02
2022-10-22T07:31:08.609Z,986.03
2022-10-22T07:32:08.612Z,986.03
2022-10-22T07:33:08.563Z,986.03
2022-10-22T07:37:02.619Z,985.94
2022-10-22T07:38:02.591Z,985.98
2022-10-22T07:39:02.583Z,985.98
2022-10-22T07:40:03.931Z,986.00
2022-10-22T07:41:02.551Z,986.02
2022-10-22T07:42:02.544Z,986.04
2022-10-22T07:43:02.563Z,986.06
2022-10-22T07:44:02.536Z,986.08
2022-10-22T07:45:02.525Z,986.10
2022-10-22T07:46:02.505Z,986.12
2022-10-22T07:47:02.494Z,986.12
2022-10-22T07:48:02.499Z,986.13
2022-10-22T07:49:02.922Z,986.14
2022-10-22T07:50:02.479Z,986.12
2022-10-22T07:51:02.469Z,986.12
2022-10-22T07:52:02.459Z,986.12
2022-10-22T07:53:02.456Z,986.12
2022-10-22T07:54:02.454Z,986.12
2022-10-22T07:55:02.574Z,986.13
2022-10-22T07:56:02.427Z,986.14
2022-10-22T07:57:02.416Z,986.16
2022-10-22T07:58:02.409Z,986.17
2022-10-22T08:00:02.391Z,986.20
2022-10-22T08:01:02.458Z,986.19
2022-10-22T08:02:03.123Z,986.20
2022-10-22T08:03:02.378Z,986.22
2022-10-22T08:04:02.370Z,986.23
2022-10-22T08:05:02.345Z,986.24
2022-10-22T08:06:02.331Z,986.27
2022-10-22T08:07:02.335Z,986.30
2022-10-22T08:08:02.329Z,986.32
2022-10-22T08:09:02.370Z,986.34
2022-10-22T08:10:02.308Z,986.36
2022-10-22T08:11:02.316Z,986.37
2022-10-22T08:12:02.333Z,986.38
2022-10-22T08:13:02.278Z,986.38
2022-10-22T08:14:02.268Z,986.40
2022-10-22T08:15:02.257Z,986.42
2022-10-22T08:16:02.267Z,986.45
2022-10-22T08:17:02.415Z,986.46
2022-10-22T08:18:02.449Z,986.46
2022-10-22T08:19:03.141Z,986.48
2022-10-22T08:20:02.213Z,986.49
2022-10-22T08:21:02.197Z,986.52
2022-10-22T08:22:02.410Z,986.53
2022-10-22T08:23:02.206Z,986.54
2022-10-22T08:24:02.292Z,986.55
2022-10-22T08:25:02.176Z,986.54
2022-10-22T08:26:02.194Z,986.55
2022-10-22T08:27:02.161Z,986.56
2022-10-22T08:28:02.181Z,986.55
2022-10-22T08:29:02.246Z,986.55
2022-10-22T08:30:02.838Z,986.54
2022-10-22T08:31:02.131Z,986.54
2022-10-22T08:32:02.141Z,986.56
2022-10-22T08:33:02.100Z,986.57
2022-10-22T08:34:02.100Z,986.58
2022-10-22T08:35:02.302Z,986.57
2022-10-22T08:36:02.077Z,986.58
2022-10-22T08:37:02.245Z,986.56
2022-10-22T08:38:02.367Z,986.55
2022-10-22T08:39:02.055Z,986.54
2022-10-22T08:40:02.073Z,986.55
2022-10-22T08:41:02.121Z,986.56
2022-10-22T08:42:02.094Z,986.57
2022-10-22T08:43:02.046Z,986.58
2022-10-22T08:44:02.046Z,986.57
2022-10-22T08:45:02.007Z,986.57
2022-10-22T08:46:03.083Z,986.58
2022-10-22T08:47:02.025Z,986.60
2022-10-22T08:48:01.983Z,986.63
2022-10-22T08:49:02.041Z,986.64
2022-10-22T08:50:01.953Z,986.66
2022-10-22T08:51:01.958Z,986.67
2022-10-22T08:52:01.963Z,986.69
2022-10-22T08:53:01.947Z,986.71
2022-10-22T08:54:01.951Z,986.72
2022-10-22T08:55:02.053Z,986.73
2022-10-22T08:56:01.899Z,986.72
2022-10-22T08:57:01.938Z,986.72
2022-10-22T08:58:01.888Z,986.74
2022-10-22T08:59:01.884Z,986.73
2022-10-22T09:00:01.909Z,986.73
2022-10-22T09:01:09.416Z,986.73
2022-10-22T09:02:01.863Z,986.73
2022-10-22T09:03:01.844Z,986.74
2022-10-22T09:04:01.907Z,986.75
2022-10-22T09:05:01.845Z,986.76
2022-10-22T09:06:01.855Z,986.76
2022-10-22T09:07:01.805Z,986.77
2022-10-22T09:08:01.823Z,986.77
2022-10-22T09:09:01.855Z,986.77
2022-10-22T09:10:01.802Z,986.77
2022-10-22T09:11:01.783Z,986.77
2022-10-22T09:12:01.765Z,986.78
2022-10-22T09:13:01.791Z,986.79
2022-10-22T09:14:01.910Z,986.79
2022-10-22T09:15:01.761Z,986.78
2022-10-22T09:16:01.766Z,986.79
2022-10-22T09:17:01.723Z,986.79
2022-10-22T09:18:02.791Z,986.79
2022-10-22T09:19:01.758Z,986.81
2022-10-22T09:20:01.802Z,986.81
2022-10-22T09:21:01.699Z,986.81
2022-10-22T09:22:01.705Z,986.82
2022-10-22T09:23:01.663Z,986.83
2022-10-22T09:24:01.663Z,986.82
2022-10-22T09:25:01.682Z,986.82
2022-10-22T09:26:01.639Z,986.82
2022-10-22T09:27:01.640Z,986.82
2022-10-22T09:28:01.627Z,986.84
2022-10-22T09:29:01.644Z,986.84
2022-10-22T09:30:01.755Z,986.85
2022-10-22T09:31:01.686Z,986.82
2022-10-22T09:32:01.653Z,986.85
2022-10-22T09:33:01.581Z,986.86
2022-10-22T09:34:01.580Z,986.87
2022-10-22T09:35:01.561Z,986.87
2022-10-22T09:36:01.569Z,986.86
2022-10-22T09:37:01.548Z,986.86
2022-10-22T09:38:01.531Z,986.87
2022-10-22T09:39:01.527Z,986.87
2022-10-22T09:40:01.551Z,986.89
2022-10-22T09:41:01.509Z,986.90
2022-10-22T09:42:01.496Z,986.90
2022-10-22T09:43:01.502Z,986.92
2022-10-22T09:44:01.479Z,986.93
2022-10-22T09:45:01.734Z,986.93
2022-10-22T09:46:01.491Z,986.94
2022-10-22T09:47:01.478Z,986.93
2022-10-22T09:48:02.346Z,986.93
2022-10-22T09:49:01.499Z,986.93
2022-10-22T09:50:01.428Z,986.93
2022-10-22T09:51:04.191Z,986.93
2022-10-22T09:52:03.632Z,986.94
2022-10-22T09:53:02.601Z,986.95
2022-10-22T09:54:03.385Z,986.95
2022-10-22T09:55:01.417Z,986.94
2022-10-22T09:56:01.494Z,986.95
2022-10-22T09:57:01.705Z,986.94
2022-10-22T09:58:01.390Z,986.92
2022-10-22T09:59:01.546Z,986.91
2022-10-22T10:00:01.342Z,986.90
2022-10-22T10:01:01.343Z,986.90
2022-10-22T10:02:13.427Z,986.90
2022-10-22T10:03:02.360Z,986.89
2022-10-22T10:04:04.432Z,986.89
2022-10-22T10:05:01.297Z,986.89
2022-10-22T10:06:04.818Z,986.90
2022-10-22T10:07:01.274Z,986.92
2022-10-22T10:08:01.574Z,986.92
2022-10-22T10:09:01.538Z,986.92
2022-10-22T10:10:01.277Z,986.93
2022-10-22T10:11:01.241Z,986.96
2022-10-22T10:12:01.426Z,986.96
2022-10-22T10:13:01.228Z,986.97
2022-10-22T10:14:01.405Z,986.97
2022-10-22T10:15:05.466Z,986.99
2022-10-22T10:16:01.211Z,986.99
2022-10-22T10:17:01.267Z,986.99
2022-10-22T10:18:01.166Z,987.01
2022-10-22T10:19:01.162Z,987.03
2022-10-22T10:20:03.778Z,987.04
2022-10-22T10:21:01.202Z,987.03
2022-10-22T10:22:01.160Z,987.01
2022-10-22T10:23:01.138Z,986.98
2022-10-22T10:24:01.141Z,987.02
2022-10-22T10:25:01.129Z,986.98
2022-10-22T10:26:01.120Z,986.98
2022-10-22T10:27:01.117Z,987.00
2022-10-22T10:28:01.095Z,986.97
2022-10-22T10:29:01.111Z,986.97
2022-10-22T10:30:01.133Z,986.95
2022-10-22T10:31:01.129Z,986.93
2022-10-22T10:32:01.086Z,986.94
2022-10-22T10:33:01.073Z,986.91
2022-10-22T10:34:01.049Z,986.94
2022-10-22T10:35:01.035Z,986.95
2022-10-22T10:36:01.015Z,986.94
2022-10-22T10:37:01.014Z,986.95
2022-10-22T10:38:01.224Z,986.89
2022-10-22T10:39:01.040Z,986.98
2022-10-22T10:40:01.133Z,986.91
2022-10-22T10:41:00.992Z,986.79
2022-10-22T10:42:01.037Z,986.84
2022-10-22T10:43:01.077Z,986.72
2022-10-22T10:44:01.163Z,986.69
2022-10-22T10:45:01.027Z,986.71
2022-10-22T10:46:00.936Z,986.76
2022-10-22T10:47:00.923Z,986.71
2022-10-22T10:48:00.933Z,986.63
2022-10-22T10:49:00.920Z,986.70
2022-10-22T10:50:00.903Z,986.69
2022-10-22T10:51:00.904Z,986.80
2022-10-22T10:52:01.172Z,986.73
2022-10-22T10:53:01.210Z,986.64
2022-10-22T10:54:00.911Z,986.74
2022-10-22T10:55:00.874Z,986.63
2022-10-22T10:56:00.883Z,986.71
2022-10-22T10:57:00.850Z,986.64
2022-10-22T10:58:00.833Z,986.63
2022-10-22T10:59:00.826Z,986.64
2022-10-22T11:00:00.825Z,986.66
2022-10-22T11:01:00.814Z,986.62
2022-10-22T11:02:00.857Z,986.65
2022-10-22T11:03:00.809Z,986.60
2022-10-22T11:04:00.801Z,986.70
2022-10-22T11:05:00.793Z,986.73
2022-10-22T11:06:00.817Z,986.69
2022-10-22T11:07:10.965Z,986.73
2022-10-22T11:08:01.762Z,986.73
2022-10-22T11:09:00.849Z,986.72
2022-10-22T11:10:00.777Z,986.69
2022-10-22T11:11:00.748Z,986.69
2022-10-22T11:12:00.751Z,986.69
2022-10-22T11:13:00.924Z,986.73
2022-10-22T11:14:00.721Z,986.67
2022-10-22T11:15:00.710Z,986.64
2022-10-22T11:16:00.738Z,986.72
2022-10-22T11:17:00.718Z,986.77
2022-10-22T11:18:00.688Z,986.88
2022-10-22T11:19:00.688Z,986.86
2022-10-22T11:20:00.810Z,986.83
2022-10-22T11:21:00.690Z,986.82
2022-10-22T11:22:00.658Z,986.77
2022-10-22T11:23:18.878Z,986.74
2022-10-22T11:24:01.649Z,986.75
2022-10-22T11:25:00.638Z,986.76
2022-10-22T11:26:00.634Z,986.76
2022-10-22T11:27:00.687Z,986.80
2022-10-22T11:28:06.639Z,986.80
2022-10-22T11:29:01.596Z,986.80
2022-10-22T11:30:00.594Z,986.80
2022-10-22T11:31:00.594Z,986.86
2022-10-22T11:32:00.595Z,986.90
2022-10-22T11:33:00.565Z,986.93
2022-10-22T11:34:09.858Z,986.95
2022-10-22T11:35:01.559Z,986.97
2022-10-22T11:36:00.574Z,987.00
2022-10-22T11:37:00.533Z,987.00
2022-10-22T11:38:00.521Z,987.01
2022-10-22T11:39:00.520Z,987.03
2022-10-22T11:40:00.530Z,987.07
2022-10-22T11:41:00.498Z,987.07
2022-10-22T11:42:00.493Z,987.09
2022-10-22T11:43:00.539Z,987.12
2022-10-22T11:44:00.467Z,987.14
2022-10-22T11:45:00.464Z,987.16
2022-10-22T11:46:00.473Z,987.18
2022-10-22T11:47:00.443Z,987.18
2022-10-22T11:48:00.463Z,987.17
2022-10-22T11:49:00.433Z,987.15
2022-10-22T11:50:00.428Z,987.14
2022-10-22T11:51:00.443Z,987.12
2022-10-22T11:52:04.275Z,987.11
2022-10-22T11:53:00.570Z,987.11
2022-10-22T11:54:00.396Z,987.12
2022-10-22T11:55:00.383Z,987.12
2022-10-22T11:56:00.371Z,987.12
2022-10-22T11:57:00.381Z,987.14
2022-10-22T11:58:00.361Z,987.13
2022-10-22T11:59:00.817Z,987.15
2022-10-22T12:00:00.338Z,987.10
2022-10-22T12:01:00.466Z,987.09
2022-10-22T12:02:00.337Z,987.08
2022-10-22T12:03:00.319Z,987.08
2022-10-22T12:04:00.333Z,987.06
2022-10-22T12:05:00.296Z,987.06
2022-10-22T12:06:00.285Z,987.06
2022-10-22T12:07:00.283Z,987.05
2022-10-22T12:08:00.275Z,987.04
2022-10-22T12:09:00.329Z,987.06
2022-10-22T12:10:00.378Z,987.07
2022-10-22T12:11:00.245Z,987.06
2022-10-22T12:12:00.233Z,987.05
2022-10-22T12:13:00.262Z,987.05
2022-10-22T12:14:00.227Z,987.04
2022-10-22T12:15:00.252Z,987.03
2022-10-22T12:16:00.238Z,987.02
2022-10-22T12:17:00.213Z,987.02
2022-10-22T12:18:00.308Z,987.02
2022-10-22T12:19:00.203Z,987.02
2022-10-22T12:20:02.264Z,987.00
2022-10-22T12:21:00.171Z,986.97
2022-10-22T12:22:00.188Z,986.95
2022-10-22T12:23:00.147Z,986.92
2022-10-22T12:24:00.167Z,986.91
2022-10-22T12:25:00.167Z,986.90
2022-10-22T12:26:00.117Z,986.89
2022-10-22T12:27:00.122Z,986.90
2022-10-22T12:28:00.174Z,986.89
2022-10-22T12:29:00.107Z,986.88
2022-10-22T12:30:00.122Z,986.87
2022-10-22T12:31:00.162Z,986.85
2022-10-22T12:32:00.087Z,986.82
2022-10-22T12:33:00.111Z,986.79
2022-10-22T12:34:00.068Z,986.77